Hartford, Connecticut
Traffic Map
Current Weather Conditions
Hartford, Connecticut
Overcast
Overcast
15°
Feels Like: 15°
Wind Chill: 15° Ceiling: 1900
Heat Index: 15° Visibility: 10mi
Dew Point: 13° Wind: 9mph
Humidity: 90% Direction: 10° (N)
Pressure: 30.08in Gusts: 0mph
Raw Report DataKHFD 012353Z 01008KT 320V040 10SM OVC019 15/13 A3008 RMK AO2 RAB08E25 SLP187 P0000 60000 T01500133 10161 20150 51013
Traffic Incident Summary
Active as of:
Severity:
Category:
InformationThere was an issue retrieving the traffic information for this location. Please try a different location or try again shortly.
Advertisements
Track Severe Weather on mobile